sensor_id;sensor_type;location;lat;lon;timestamp;pressure;altitude;pressure_sealevel;temperature;humidity
7668;BME280;3876;42.204;24.686;2023-05-17T00:00:36;98908.44;;;14.33;100.00
7668;BME280;3876;42.204;24.686;2023-05-17T00:03:02;98910.78;;;14.38;100.00
7668;BME280;3876;42.204;24.686;2023-05-17T00:05:30;98909.94;;;14.37;100.00
7668;BME280;3876;42.204;24.686;2023-05-17T00:07:57;98901.03;;;14.43;100.00
7668;BME280;3876;42.204;24.686;2023-05-17T00:10:24;98913.59;;;14.33;100.00
7668;BME280;3876;42.204;24.686;2023-05-17T00:12:50;98910.72;;;14.22;100.00
7668;BME280;3876;42.204;24.686;2023-05-17T00:15:17;98908.97;;;14.23;100.00
7668;BME280;3876;42.204;24.686;2023-05-17T00:17:44;98910.72;;;14.22;100.00
7668;BME280;3876;42.204;24.686;2023-05-17T00:20:11;98904.59;;;14.25;100.00
7668;BME280;3876;42.204;24.686;2023-05-17T00:22:39;98897.41;;;14.14;100.00
7668;BME280;3876;42.204;24.686;2023-05-17T00:25:07;98903.91;;;14.21;100.00
7668;BME280;3876;42.204;24.686;2023-05-17T00:27:34;98905.56;;;14.22;100.00
7668;BME280;3876;42.204;24.686;2023-05-17T00:30:01;98918.38;;;14.24;100.00
7668;BME280;3876;42.204;24.686;2023-05-17T00:32:28;98921.03;;;14.22;100.00
7668;BME280;3876;42.204;24.686;2023-05-17T00:34:54;98917.47;;;14.25;100.00
7668;BME280;3876;42.204;24.686;2023-05-17T00:37:21;98907.00;;;14.28;100.00
7668;BME280;3876;42.204;24.686;2023-05-17T00:39:49;98917.53;;;14.23;100.00
7668;BME280;3876;42.204;24.686;2023-05-17T00:42:17;98920.84;;;14.25;100.00
7668;BME280;3876;42.204;24.686;2023-05-17T00:44:47;98912.88;;;14.14;100.00
7668;BME280;3876;42.204;24.686;2023-05-17T00:47:14;98903.22;;;14.17;100.00
7668;BME280;3876;42.204;24.686;2023-05-17T00:49:40;98904.47;;;14.10;100.00
7668;BME280;3876;42.204;24.686;2023-05-17T00:52:07;98889.34;;;14.20;100.00
7668;BME280;3876;42.204;24.686;2023-05-17T00:54:34;98879.59;;;14.25;100.00
7668;BME280;3876;42.204;24.686;2023-05-17T00:57:02;98871.28;;;14.20;100.00
7668;BME280;3876;42.204;24.686;2023-05-17T00:59:30;98878.28;;;14.18;100.00
7668;BME280;3876;42.204;24.686;2023-05-17T01:01:57;98886.75;;;14.20;100.00
7668;BME280;3876;42.204;24.686;2023-05-17T01:04:24;98891.44;;;14.29;100.00
7668;BME280;3876;42.204;24.686;2023-05-17T01:06:51;98890.22;;;14.36;100.00
7668;BME280;3876;42.204;24.686;2023-05-17T01:09:20;98888.22;;;14.41;100.00
7668;BME280;3876;42.204;24.686;2023-05-17T01:11:53;98889.50;;;14.50;100.00
7668;BME280;3876;42.204;24.686;2023-05-17T01:14:32;98895.94;;;14.41;100.00
7668;BME280;3876;42.204;24.686;2023-05-17T01:17:05;98885.25;;;14.32;100.00
7668;BME280;3876;42.204;24.686;2023-05-17T01:19:49;98880.06;;;14.33;100.00
7668;BME280;3876;42.204;24.686;2023-05-17T01:22:26;98889.00;;;14.43;100.00
7668;BME280;3876;42.204;24.686;2023-05-17T01:25:06;98897.78;;;14.39;100.00
7668;BME280;3876;42.204;24.686;2023-05-17T01:27:40;98894.03;;;14.45;100.00
7668;BME280;3876;42.204;24.686;2023-05-17T01:30:10;98885.91;;;14.52;100.00
7668;BME280;3876;42.204;24.686;2023-05-17T01:32:40;98886.47;;;14.57;100.00
7668;BME280;3876;42.204;24.686;2023-05-17T01:35:09;98884.50;;;14.62;100.00
7668;BME280;3876;42.204;24.686;2023-05-17T01:37:37;98882.66;;;14.64;100.00
7668;BME280;3876;42.204;24.686;2023-05-17T01:40:05;98850.88;;;14.48;100.00
7668;BME280;3876;42.204;24.686;2023-05-17T01:42:38;98865.84;;;14.57;100.00
7668;BME280;3876;42.204;24.686;2023-05-17T01:45:10;98877.09;;;14.56;100.00
7668;BME280;3876;42.204;24.686;2023-05-17T01:47:42;98864.53;;;14.50;100.00
7668;BME280;3876;42.204;24.686;2023-05-17T01:50:14;98877.66;;;14.61;100.00
7668;BME280;3876;42.204;24.686;2023-05-17T01:52:46;98884.31;;;14.65;100.00
7668;BME280;3876;42.204;24.686;2023-05-17T01:55:20;98878.81;;;14.71;100.00
7668;BME280;3876;42.204;24.686;2023-05-17T01:57:52;98868.00;;;14.65;100.00
7668;BME280;3876;42.204;24.686;2023-05-17T02:00:21;98877.75;;;14.76;100.00
7668;BME280;3876;42.204;24.686;2023-05-17T02:02:49;98876.00;;;14.76;100.00
7668;BME280;3876;42.204;24.686;2023-05-17T02:05:16;98875.00;;;14.79;100.00
7668;BME280;3876;42.204;24.686;2023-05-17T02:07:43;98870.19;;;14.73;100.00
7668;BME280;3876;42.204;24.686;2023-05-17T02:10:10;98887.91;;;14.79;100.00
7668;BME280;3876;42.204;24.686;2023-05-17T02:12:37;98887.78;;;14.80;100.00
7668;BME280;3876;42.204;24.686;2023-05-17T02:15:06;98873.66;;;14.71;100.00
7668;BME280;3876;42.204;24.686;2023-05-17T02:17:35;98879.56;;;14.73;100.00
7668;BME280;3876;42.204;24.686;2023-05-17T02:20:04;98886.38;;;14.75;100.00
7668;BME280;3876;42.204;24.686;2023-05-17T02:22:31;98884.72;;;14.73;100.00
7668;BME280;3876;42.204;24.686;2023-05-17T02:24:57;98884.81;;;14.72;100.00
7668;BME280;3876;42.204;24.686;2023-05-17T02:27:24;98887.31;;;14.73;100.00
7668;BME280;3876;42.204;24.686;2023-05-17T02:29:51;98886.56;;;14.71;100.00
7668;BME280;3876;42.204;24.686;2023-05-17T02:32:19;98878.94;;;14.70;100.00
7668;BME280;3876;42.204;24.686;2023-05-17T02:34:45;98883.31;;;14.68;100.00
7668;BME280;3876;42.204;24.686;2023-05-17T02:37:12;98872.16;;;14.67;100.00
7668;BME280;3876;42.204;24.686;2023-05-17T02:39:39;98879.00;;;14.68;100.00
7668;BME280;3876;42.204;24.686;2023-05-17T02:42:06;98892.78;;;14.67;100.00
7668;BME280;3876;42.204;24.686;2023-05-17T02:44:33;98906.63;;;14.66;100.00
7668;BME280;3876;42.204;24.686;2023-05-17T02:47:00;98909.22;;;14.66;100.00
7668;BME280;3876;42.204;24.686;2023-05-17T02:49:28;98895.38;;;14.67;100.00
7668;BME280;3876;42.204;24.686;2023-05-17T02:51:54;98895.47;;;14.66;100.00
7668;BME280;3876;42.204;24.686;2023-05-17T02:54:21;98898.22;;;14.63;100.00
7668;BME280;3876;42.204;24.686;2023-05-17T02:56:48;98887.97;;;14.61;100.00
7668;BME280;3876;42.204;24.686;2023-05-17T02:59:14;98883.81;;;14.59;100.00
7668;BME280;3876;42.204;24.686;2023-05-17T03:01:41;98882.09;;;14.59;100.00
7668;BME280;3876;42.204;24.686;2023-05-17T03:04:08;98884.66;;;14.59;100.00
7668;BME280;3876;42.204;24.686;2023-05-17T03:06:36;98893.31;;;14.58;100.00
7668;BME280;3876;42.204;24.686;2023-05-17T03:09:03;98895.16;;;14.56;100.00
7668;BME280;3876;42.204;24.686;2023-05-17T03:11:31;98888.72;;;14.48;100.00
7668;BME280;3876;42.204;24.686;2023-05-17T03:13:58;98892.63;;;14.55;100.00
7668;BME280;3876;42.204;24.686;2023-05-17T03:16:25;98896.97;;;14.54;100.00
7668;BME280;3876;42.204;24.686;2023-05-17T03:18:51;98902.13;;;14.54;100.00
7668;BME280;3876;42.204;24.686;2023-05-17T03:21:18;98905.47;;;14.56;100.00
7668;BME280;3876;42.204;24.686;2023-05-17T03:23:46;98907.28;;;14.54;100.00
7668;BME280;3876;42.204;24.686;2023-05-17T03:26:13;98908.63;;;14.46;100.00
7668;BME280;3876;42.204;24.686;2023-05-17T03:28:39;98913.78;;;14.46;100.00
7668;BME280;3876;42.204;24.686;2023-05-17T03:31:06;98916.59;;;14.41;100.00
7668;BME280;3876;42.204;24.686;2023-05-17T03:33:33;98925.09;;;14.43;100.00
7668;BME280;3876;42.204;24.686;2023-05-17T03:36:00;98932.22;;;14.38;100.00
7668;BME280;3876;42.204;24.686;2023-05-17T03:38:27;98931.66;;;14.16;100.00
7668;BME280;3876;42.204;24.686;2023-05-17T03:40:55;98932.22;;;14.05;100.00
7668;BME280;3876;42.204;24.686;2023-05-17T03:43:22;98927.09;;;13.88;100.00
7668;BME280;3876;42.204;24.686;2023-05-17T03:45:48;98928.09;;;13.86;100.00
7668;BME280;3876;42.204;24.686;2023-05-17T03:48:15;98929.84;;;13.85;100.00
7668;BME280;3876;42.204;24.686;2023-05-17T03:50:42;98913.41;;;13.71;100.00
7668;BME280;3876;42.204;24.686;2023-05-17T03:53:08;98937.34;;;13.73;100.00
7668;BME280;3876;42.204;24.686;2023-05-17T03:55:35;98934.84;;;13.71;100.00
7668;BME280;3876;42.204;24.686;2023-05-17T03:58:03;98916.16;;;13.50;100.00
7668;BME280;3876;42.204;24.686;2023-05-17T04:00:30;98934.31;;;13.47;100.00
7668;BME280;3876;42.204;24.686;2023-05-17T04:02:57;98934.25;;;13.49;100.00
7668;BME280;3876;42.204;24.686;2023-05-17T04:05:24;98933.09;;;13.54;100.00
7668;BME280;3876;42.204;24.686;2023-05-17T04:07:51;98933.88;;;13.56;100.00
7668;BME280;3876;42.204;24.686;2023-05-17T04:10:17;98912.66;;;13.51;100.00
7668;BME280;3876;42.204;24.686;2023-05-17T04:12:44;98928.84;;;13.71;100.00
7668;BME280;3876;42.204;24.686;2023-05-17T04:15:12;98926.72;;;13.79;100.00
7668;BME280;3876;42.204;24.686;2023-05-17T04:17:39;98930.56;;;13.87;100.00
7668;BME280;3876;42.204;24.686;2023-05-17T04:20:06;98923.53;;;13.91;100.00
7668;BME280;3876;42.204;24.686;2023-05-17T04:22:33;98942.94;;;13.98;100.00
7668;BME280;3876;42.204;24.686;2023-05-17T04:25:00;98932.63;;;13.98;100.00
7668;BME280;3876;42.204;24.686;2023-05-17T04:27:26;98945.25;;;14.02;100.00
7668;BME280;3876;42.204;24.686;2023-05-17T04:29:53;98940.03;;;14.04;100.00
7668;BME280;3876;42.204;24.686;2023-05-17T04:32:21;98945.13;;;14.05;100.00
7668;BME280;3876;42.204;24.686;2023-05-17T04:34:49;98925.63;;;14.00;100.00
7668;BME280;3876;42.204;24.686;2023-05-17T04:37:16;98932.97;;;14.07;100.00
7668;BME280;3876;42.204;24.686;2023-05-17T04:39:43;98930.13;;;14.12;100.00
7668;BME280;3876;42.204;24.686;2023-05-17T04:42:09;98929.69;;;14.21;100.00
7668;BME280;3876;42.204;24.686;2023-05-17T04:44:36;98940.41;;;14.29;100.00
7668;BME280;3876;42.204;24.686;2023-05-17T04:47:04;98918.88;;;14.30;100.00
7668;BME280;3876;42.204;24.686;2023-05-17T04:49:32;98933.91;;;14.39;100.00
7668;BME280;3876;42.204;24.686;2023-05-17T04:51:59;98923.25;;;14.45;100.00
7668;BME280;3876;42.204;24.686;2023-05-17T04:54:26;98927.41;;;14.48;100.00
7668;BME280;3876;42.204;24.686;2023-05-17T04:56:52;98936.59;;;14.53;100.00
7668;BME280;3876;42.204;24.686;2023-05-17T04:59:19;98934.59;;;14.58;100.00
7668;BME280;3876;42.204;24.686;2023-05-17T05:01:46;98937.75;;;14.63;100.00
7668;BME280;3876;42.204;24.686;2023-05-17T05:04:12;98938.34;;;14.68;100.00
7668;BME280;3876;42.204;24.686;2023-05-17T05:06:40;98953.91;;;14.83;100.00
7668;BME280;3876;42.204;24.686;2023-05-17T05:09:07;98954.41;;;14.89;100.00
7668;BME280;3876;42.204;24.686;2023-05-17T05:11:34;98951.56;;;14.94;100.00
7668;BME280;3876;42.204;24.686;2023-05-17T05:14:01;98958.06;;;15.01;100.00
7668;BME280;3876;42.204;24.686;2023-05-17T05:16:28;98961.03;;;15.09;100.00
7668;BME280;3876;42.204;24.686;2023-05-17T05:18:54;98964.09;;;15.15;100.00
7668;BME280;3876;42.204;24.686;2023-05-17T05:21:21;98956.22;;;15.18;100.00
7668;BME280;3876;42.204;24.686;2023-05-17T05:23:49;98955.03;;;15.24;100.00
7668;BME280;3876;42.204;24.686;2023-05-17T05:26:16;98962.59;;;15.27;100.00
7668;BME280;3876;42.204;24.686;2023-05-17T05:28:42;98956.19;;;15.34;100.00
7668;BME280;3876;42.204;24.686;2023-05-17T05:31:09;98958.00;;;15.32;100.00
7668;BME280;3876;42.204;24.686;2023-05-17T05:33:36;98964.50;;;15.39;100.00
7668;BME280;3876;42.204;24.686;2023-05-17T05:36:03;98961.00;;;15.40;100.00
7668;BME280;3876;42.204;24.686;2023-05-17T05:38:30;98970.97;;;15.46;100.00
7668;BME280;3876;42.204;24.686;2023-05-17T05:40:58;98972.50;;;15.50;100.00
7668;BME280;3876;42.204;24.686;2023-05-17T05:43:25;98975.81;;;15.52;100.00
7668;BME280;3876;42.204;24.686;2023-05-17T05:45:51;98977.16;;;15.59;100.00
7668;BME280;3876;42.204;24.686;2023-05-17T05:48:18;98975.28;;;15.61;100.00
7668;BME280;3876;42.204;24.686;2023-05-17T05:50:45;98974.94;;;15.67;100.00
7668;BME280;3876;42.204;24.686;2023-05-17T05:53:12;98978.47;;;15.66;100.00
7668;BME280;3876;42.204;24.686;2023-05-17T05:55:40;98974.03;;;15.68;100.00
7668;BME280;3876;42.204;24.686;2023-05-17T05:58:08;98969.59;;;15.70;100.00
7668;BME280;3876;42.204;24.686;2023-05-17T06:00:35;98979.00;;;15.71;100.00
7668;BME280;3876;42.204;24.686;2023-05-17T06:03:03;98969.25;;;15.77;100.00
7668;BME280;3876;42.204;24.686;2023-05-17T06:05:30;98968.91;;;15.83;100.00
7668;BME280;3876;42.204;24.686;2023-05-17T06:07:57;98961.81;;;15.86;100.00
7668;BME280;3876;42.204;24.686;2023-05-17T06:10:23;98961.16;;;15.83;100.00
7668;BME280;3876;42.204;24.686;2023-05-17T06:12:50;98961.03;;;15.84;100.00
7668;BME280;3876;42.204;24.686;2023-05-17T06:15:18;98961.53;;;15.91;100.00
7668;BME280;3876;42.204;24.686;2023-05-17T06:17:45;98963.19;;;15.92;100.00
7668;BME280;3876;42.204;24.686;2023-05-17T06:20:12;98926.06;;;15.79;100.00
7668;BME280;3876;42.204;24.686;2023-05-17T06:22:39;98966.72;;;16.05;100.00
7668;BME280;3876;42.204;24.686;2023-05-17T06:25:06;98969.97;;;16.08;100.00
7668;BME280;3876;42.204;24.686;2023-05-17T06:27:33;98980.22;;;16.24;100.00
7668;BME280;3876;42.204;24.686;2023-05-17T06:30:00;98972.00;;;16.32;100.00
7668;BME280;3876;42.204;24.686;2023-05-17T06:32:30;98962.28;;;16.35;100.00
7668;BME280;3876;42.204;24.686;2023-05-17T06:34:56;98970.03;;;16.49;100.00
7668;BME280;3876;42.204;24.686;2023-05-17T06:37:23;98967.19;;;16.40;100.00
7668;BME280;3876;42.204;24.686;2023-05-17T06:39:50;98962.84;;;16.40;100.00
7668;BME280;3876;42.204;24.686;2023-05-17T06:42:17;98958.44;;;16.56;100.00
7668;BME280;3876;42.204;24.686;2023-05-17T06:44:44;98958.69;;;16.80;100.00
7668;BME280;3876;42.204;24.686;2023-05-17T06:47:11;98966.19;;;16.97;100.00
7668;BME280;3876;42.204;24.686;2023-05-17T06:49:39;98985.34;;;17.09;100.00
7668;BME280;3876;42.204;24.686;2023-05-17T06:52:06;98973.75;;;17.14;100.00
7668;BME280;3876;42.204;24.686;2023-05-17T06:54:33;98962.56;;;17.14;100.00
7668;BME280;3876;42.204;24.686;2023-05-17T06:57:00;98988.31;;;17.29;100.00
7668;BME280;3876;42.204;24.686;2023-05-17T06:59:27;98998.38;;;17.34;100.00
7668;BME280;3876;42.204;24.686;2023-05-17T07:01:54;99010.94;;;17.40;100.00
7668;BME280;3876;42.204;24.686;2023-05-17T07:04:21;99006.41;;;17.44;100.00
7668;BME280;3876;42.204;24.686;2023-05-17T07:06:49;99001.69;;;17.36;100.00
7668;BME280;3876;42.204;24.686;2023-05-17T07:09:17;98982.00;;;17.07;100.00
7668;BME280;3876;42.204;24.686;2023-05-17T07:11:43;99001.06;;;17.06;100.00
7668;BME280;3876;42.204;24.686;2023-05-17T07:14:10;99016.22;;;17.12;100.00
7668;BME280;3876;42.204;24.686;2023-05-17T07:16:37;99020.31;;;17.02;100.00
7668;BME280;3876;42.204;24.686;2023-05-17T07:19:03;99015.06;;;16.89;100.00
7668;BME280;3876;42.204;24.686;2023-05-17T07:21:30;99019.22;;;16.92;100.00
7668;BME280;3876;42.204;24.686;2023-05-17T07:23:59;99016.63;;;16.92;100.00
7668;BME280;3876;42.204;24.686;2023-05-17T07:26:25;99017.34;;;16.94;100.00
7668;BME280;3876;42.204;24.686;2023-05-17T07:28:52;99013.31;;;16.90;100.00
7668;BME280;3876;42.204;24.686;2023-05-17T07:31:19;99019.28;;;16.90;100.00
7668;BME280;3876;42.204;24.686;2023-05-17T07:33:45;99018.81;;;16.98;100.00
7668;BME280;3876;42.204;24.686;2023-05-17T07:36:12;99012.16;;;17.08;100.00
7668;BME280;3876;42.204;24.686;2023-05-17T07:38:39;99012.22;;;17.06;100.00
7668;BME280;3876;42.204;24.686;2023-05-17T07:41:07;99006.16;;;16.93;100.00
7668;BME280;3876;42.204;24.686;2023-05-17T07:43:34;99001.47;;;16.86;100.00
7668;BME280;3876;42.204;24.686;2023-05-17T07:46:01;99001.66;;;16.83;100.00
7668;BME280;3876;42.204;24.686;2023-05-17T07:48:28;98997.50;;;16.80;100.00
7668;BME280;3876;42.204;24.686;2023-05-17T07:50:55;98997.25;;;16.56;100.00
7668;BME280;3876;42.204;24.686;2023-05-17T07:53:22;98999.22;;;16.51;100.00
7668;BME280;3876;42.204;24.686;2023-05-17T07:55:48;98998.31;;;16.52;100.00
7668;BME280;3876;42.204;24.686;2023-05-17T07:58:16;98990.56;;;16.52;100.00
7668;BME280;3876;42.204;24.686;2023-05-17T08:00:43;98990.03;;;16.61;100.00
7668;BME280;3876;42.204;24.686;2023-05-17T08:03:10;99003.72;;;16.63;100.00
7668;BME280;3876;42.204;24.686;2023-05-17T08:05:36;99003.59;;;16.65;100.00
7668;BME280;3876;42.204;24.686;2023-05-17T08:08:03;98999.81;;;16.70;100.00
7668;BME280;3876;42.204;24.686;2023-05-17T08:10:30;99003.88;;;16.74;100.00
7668;BME280;3876;42.204;24.686;2023-05-17T08:12:57;99014.81;;;16.79;100.00
7668;BME280;3876;42.204;24.686;2023-05-17T08:15:25;99007.56;;;16.85;100.00
7668;BME280;3876;42.204;24.686;2023-05-17T08:17:52;99009.69;;;16.92;100.00
7668;BME280;3876;42.204;24.686;2023-05-17T08:20:19;99000.81;;;16.96;100.00
7668;BME280;3876;42.204;24.686;2023-05-17T08:22:45;98981.09;;;16.94;100.00
7668;BME280;3876;42.204;24.686;2023-05-17T08:25:12;98986.66;;;17.02;100.00
7668;BME280;3876;42.204;24.686;2023-05-17T08:27:40;98981.53;;;17.00;100.00
7668;BME280;3876;42.204;24.686;2023-05-17T08:30:07;98980.91;;;16.97;100.00
7668;BME280;3876;42.204;24.686;2023-05-17T08:32:36;98983.41;;;16.98;100.00
7668;BME280;3876;42.204;24.686;2023-05-17T08:35:03;98993.75;;;16.98;100.00
7668;BME280;3876;42.204;24.686;2023-05-17T08:37:30;98992.75;;;17.01;100.00
7668;BME280;3876;42.204;24.686;2023-05-17T08:39:57;98995.13;;;17.04;100.00
7668;BME280;3876;42.204;24.686;2023-05-17T08:42:23;98984.56;;;17.07;100.00
7668;BME280;3876;42.204;24.686;2023-05-17T08:44:50;98986.34;;;17.06;100.00
7668;BME280;3876;42.204;24.686;2023-05-17T08:47:19;98998.13;;;16.98;100.00
7668;BME280;3876;42.204;24.686;2023-05-17T08:49:55;99003.69;;;16.92;100.00
7668;BME280;3876;42.204;24.686;2023-05-17T08:52:27;99006.84;;;16.83;100.00
7668;BME280;3876;42.204;24.686;2023-05-17T08:54:55;99003.88;;;16.74;100.00
7668;BME280;3876;42.204;24.686;2023-05-17T08:57:23;99011.56;;;16.62;100.00
7668;BME280;3876;42.204;24.686;2023-05-17T08:59:53;99015.72;;;16.64;100.00
7668;BME280;3876;42.204;24.686;2023-05-17T09:02:22;99023.34;;;16.52;100.00
7668;BME280;3876;42.204;24.686;2023-05-17T09:04:49;99010.88;;;16.30;100.00
7668;BME280;3876;42.204;24.686;2023-05-17T09:07:21;99012.34;;;16.20;100.00
7668;BME280;3876;42.204;24.686;2023-05-17T09:09:50;99017.50;;;16.06;100.00
7668;BME280;3876;42.204;24.686;2023-05-17T09:12:17;99023.56;;;15.91;100.00
7668;BME280;3876;42.204;24.686;2023-05-17T09:14:44;99024.81;;;15.84;100.00
7668;BME280;3876;42.204;24.686;2023-05-17T09:17:13;99027.94;;;15.74;100.00
7668;BME280;3876;42.204;24.686;2023-05-17T09:19:42;99021.44;;;15.67;100.00
7668;BME280;3876;42.204;24.686;2023-05-17T09:22:12;99024.97;;;15.66;100.00
7668;BME280;3876;42.204;24.686;2023-05-17T09:24:41;98916.22;;;15.10;100.00
7668;BME280;3876;42.204;24.686;2023-05-17T09:27:13;98999.00;;;15.54;100.00
7668;BME280;3876;42.204;24.686;2023-05-17T09:29:40;98990.72;;;15.63;100.00
7668;BME280;3876;42.204;24.686;2023-05-17T09:32:13;98988.63;;;15.69;100.00
7668;BME280;3876;42.204;24.686;2023-05-17T09:34:41;98978.59;;;15.79;100.00
7668;BME280;3876;42.204;24.686;2023-05-17T09:37:11;98972.22;;;15.85;100.00
7668;BME280;3876;42.204;24.686;2023-05-17T09:39:40;98983.03;;;15.91;100.00
7668;BME280;3876;42.204;24.686;2023-05-17T09:42:09;98983.22;;;15.88;100.00
7668;BME280;3876;42.204;24.686;2023-05-17T09:44:46;98992.72;;;15.88;100.00
7668;BME280;3876;42.204;24.686;2023-05-17T09:47:21;98990.78;;;15.91;100.00
7668;BME280;3876;42.204;24.686;2023-05-17T09:49:48;98988.13;;;15.93;100.00
7668;BME280;3876;42.204;24.686;2023-05-17T09:52:17;98983.66;;;15.81;100.00
7668;BME280;3876;42.204;24.686;2023-05-17T09:54:52;98988.63;;;15.69;100.00
7668;BME280;3876;42.204;24.686;2023-05-17T09:57:20;98986.94;;;15.68;100.00
7668;BME280;3876;42.204;24.686;2023-05-17T09:59:47;98960.72;;;15.45;100.00
7668;BME280;3876;42.204;24.686;2023-05-17T10:02:19;98980.81;;;15.55;100.00
7668;BME280;3876;42.204;24.686;2023-05-17T10:04:48;98980.63;;;15.58;100.00
7668;BME280;3876;42.204;24.686;2023-05-17T10:07:17;98980.63;;;15.58;100.00
7668;BME280;3876;42.204;24.686;2023-05-17T10:09:46;98979.50;;;15.48;100.00
7668;BME280;3876;42.204;24.686;2023-05-17T10:12:17;98977.81;;;15.47;100.00
7668;BME280;3876;42.204;24.686;2023-05-17T10:14:45;98981.00;;;15.52;100.00
7668;BME280;3876;42.204;24.686;2023-05-17T10:17:13;98977.16;;;15.59;100.00
7668;BME280;3876;42.204;24.686;2023-05-17T10:19:41;98973.66;;;15.74;100.00
7668;BME280;3876;42.204;24.686;2023-05-17T10:22:09;98971.56;;;15.81;100.00
7668;BME280;3876;42.204;24.686;2023-05-17T10:24:36;98973.53;;;15.92;100.00
7668;BME280;3876;42.204;24.686;2023-05-17T10:27:04;98972.91;;;16.02;100.00
7668;BME280;3876;42.204;24.686;2023-05-17T10:29:33;98971.72;;;16.08;100.00
7668;BME280;3876;42.204;24.686;2023-05-17T10:32:02;98961.53;;;16.19;100.00
7668;BME280;3876;42.204;24.686;2023-05-17T10:34:32;98956.28;;;16.20;100.00
7668;BME280;3876;42.204;24.686;2023-05-17T10:37:00;98969.31;;;16.33;100.00
7668;BME280;3876;42.204;24.686;2023-05-17T10:39:28;98968.75;;;16.42;100.00
7668;BME280;3876;42.204;24.686;2023-05-17T10:41:57;98959.63;;;16.51;100.00
7668;BME280;3876;42.204;24.686;2023-05-17T10:44:25;98953.25;;;16.56;100.00
7668;BME280;3876;42.204;24.686;2023-05-17T10:46:55;98958.97;;;16.61;100.00
7668;BME280;3876;42.204;24.686;2023-05-17T10:49:25;98965.63;;;16.65;100.00
7668;BME280;3876;42.204;24.686;2023-05-17T10:51:52;98968.75;;;16.70;100.00
7668;BME280;3876;42.204;24.686;2023-05-17T10:54:19;98967.00;;;16.71;100.00
7668;BME280;3876;42.204;24.686;2023-05-17T10:56:47;98968.22;;;16.65;100.00
7668;BME280;3876;42.204;24.686;2023-05-17T10:59:19;98968.75;;;16.70;100.00
7668;BME280;3876;42.204;24.686;2023-05-17T11:01:56;98971.06;;;16.75;100.00
7668;BME280;3876;42.204;24.686;2023-05-17T11:04:24;98978.56;;;16.79;100.00
7668;BME280;3876;42.204;24.686;2023-05-17T11:06:53;98969.84;;;16.80;100.00
7668;BME280;3876;42.204;24.686;2023-05-17T11:09:21;98969.66;;;16.84;100.00
7668;BME280;3876;42.204;24.686;2023-05-17T11:12:08;98964.28;;;16.87;100.00
7668;BME280;3876;42.204;24.686;2023-05-17T11:14:53;98957.25;;;16.89;100.00
7668;BME280;3876;42.204;24.686;2023-05-17T11:17:23;98971.81;;;17.04;100.00
7668;BME280;3876;42.204;24.686;2023-05-17T11:20:04;98976.13;;;17.17;100.00
7668;BME280;3876;42.204;24.686;2023-05-17T11:22:38;98975.84;;;17.22;100.00
7668;BME280;3876;42.204;24.686;2023-05-17T11:25:08;98960.47;;;17.19;100.00
7668;BME280;3876;42.204;24.686;2023-05-17T11:27:39;98956.97;;;17.20;100.00
7668;BME280;3876;42.204;24.686;2023-05-17T11:30:15;98954.19;;;17.23;100.00
7668;BME280;3876;42.204;24.686;2023-05-17T11:32:49;98949.13;;;17.21;100.00
7668;BME280;3876;42.204;24.686;2023-05-17T11:35:17;98950.31;;;17.16;100.00
7668;BME280;3876;42.204;24.686;2023-05-17T11:37:44;98947.22;;;17.11;100.00
7668;BME280;3876;42.204;24.686;2023-05-17T11:40:11;98941.50;;;17.06;100.00
7668;BME280;3876;42.204;24.686;2023-05-17T11:42:39;98942.91;;;16.97;100.00
7668;BME280;3876;42.204;24.686;2023-05-17T11:45:07;98930.97;;;16.95;100.00
7668;BME280;3876;42.204;24.686;2023-05-17T11:47:38;98931.91;;;16.94;100.00
7668;BME280;3876;42.204;24.686;2023-05-17T11:50:07;98919.00;;;16.79;100.00
7668;BME280;3876;42.204;24.686;2023-05-17T11:52:35;98932.41;;;16.86;100.00
7668;BME280;3876;42.204;24.686;2023-05-17T11:55:02;98928.03;;;16.87;100.00
7668;BME280;3876;42.204;24.686;2023-05-17T11:57:30;98931.19;;;16.92;100.00
7668;BME280;3876;42.204;24.686;2023-05-17T11:59:58;98932.22;;;16.89;100.00
7668;BME280;3876;42.204;24.686;2023-05-17T12:02:26;98923.28;;;16.93;100.00
7668;BME280;3876;42.204;24.686;2023-05-17T12:04:53;98919.41;;;17.00;100.00
7668;BME280;3876;42.204;24.686;2023-05-17T12:07:21;98923.06;;;17.10;100.00
7668;BME280;3876;42.204;24.686;2023-05-17T12:09:48;98927.22;;;17.13;100.00
7668;BME280;3876;42.204;24.686;2023-05-17T12:12:15;98917.03;;;17.10;100.00
7668;BME280;3876;42.204;24.686;2023-05-17T12:14:43;98919.13;;;17.05;100.00
7668;BME280;3876;42.204;24.686;2023-05-17T12:17:12;98919.50;;;16.99;100.00
7668;BME280;3876;42.204;24.686;2023-05-17T12:19:42;98920.22;;;17.01;100.00
7668;BME280;3876;42.204;24.686;2023-05-17T12:22:10;98918.75;;;16.97;100.00
7668;BME280;3876;42.204;24.686;2023-05-17T12:24:40;98916.91;;;16.99;100.00
7668;BME280;3876;42.204;24.686;2023-05-17T12:27:07;98913.19;;;17.03;100.00
7668;BME280;3876;42.204;24.686;2023-05-17T12:29:34;98913.00;;;17.06;100.00
7668;BME280;3876;42.204;24.686;2023-05-17T12:32:01;98910.94;;;17.11;100.00
7668;BME280;3876;42.204;24.686;2023-05-17T12:34:28;98916.56;;;17.17;100.00
7668;BME280;3876;42.204;24.686;2023-05-17T12:36:56;98915.53;;;17.20;100.00
7668;BME280;3876;42.204;24.686;2023-05-17T12:39:23;98917.00;;;17.24;100.00
7668;BME280;3876;42.204;24.686;2023-05-17T12:41:52;98916.78;;;17.27;100.00
7668;BME280;3876;42.204;24.686;2023-05-17T12:44:20;98918.06;;;17.34;100.00
7668;BME280;3876;42.204;24.686;2023-05-17T12:46:47;98907.50;;;17.37;100.00
7668;BME280;3876;42.204;24.686;2023-05-17T12:49:18;98916.09;;;17.38;100.00
7668;BME280;3876;42.204;24.686;2023-05-17T12:51:47;98918.25;;;17.31;100.00
7668;BME280;3876;42.204;24.686;2023-05-17T12:54:23;98894.19;;;17.29;100.00
7668;BME280;3876;42.204;24.686;2023-05-17T12:56:53;98906.81;;;17.48;100.00
7668;BME280;3876;42.204;24.686;2023-05-17T12:59:20;98874.94;;;17.33;100.00
7668;BME280;3876;42.204;24.686;2023-05-17T13:01:51;98902.34;;;17.50;100.00
7668;BME280;3876;42.204;24.686;2023-05-17T13:04:28;98900.66;;;17.49;100.00